createdAt,value
2022-12-31T00:00:55.414Z,8.59
2022-12-31T00:05:57.955Z,8.65
2022-12-31T00:11:00.450Z,8.73
2022-12-31T00:16:12.239Z,8.87
2022-12-31T00:21:15.879Z,9.02
2022-12-31T00:26:21.904Z,9.16
2022-12-31T00:31:27.846Z,9.26
2022-12-31T00:36:32.851Z,9.34
2022-12-31T00:41:35.809Z,9.39
2022-12-31T00:51:41.372Z,9.34
2022-12-31T00:56:43.870Z,9.39
2022-12-31T01:01:47.955Z,9.41
2022-12-31T01:06:50.562Z,9.45
2022-12-31T01:11:53.135Z,9.43
2022-12-31T01:16:56.936Z,9.42
2022-12-31T01:21:59.466Z,9.47
2022-12-31T01:27:01.957Z,9.46
2022-12-31T01:32:06.430Z,9.47
2022-12-31T01:37:08.979Z,9.53
2022-12-31T01:42:13.036Z,9.58
2022-12-31T01:47:21.005Z,9.64
2022-12-31T01:52:28.175Z,9.75
2022-12-31T01:57:31.817Z,9.83
2022-12-31T02:02:35.743Z,9.88
2022-12-31T02:07:38.851Z,9.91
2022-12-31T02:12:41.739Z,9.94
2022-12-31T02:18:09.039Z,10.01
2022-12-31T02:23:32.460Z,10.07
2022-12-31T02:28:54.081Z,10.07
2022-12-31T02:34:07.263Z,10.10
2022-12-31T02:39:11.565Z,10.10
2022-12-31T02:44:25.294Z,10.18
2022-12-31T02:49:40.582Z,10.23
2022-12-31T02:54:49.645Z,10.30
2022-12-31T03:00:16.021Z,10.27
2022-12-31T03:05:23.282Z,10.23
2022-12-31T03:10:26.006Z,10.21
2022-12-31T03:15:30.890Z,10.23
2022-12-31T03:20:54.466Z,10.23
2022-12-31T03:25:58.615Z,10.27
2022-12-31T03:31:02.921Z,10.29
2022-12-31T03:36:09.611Z,10.37
2022-12-31T03:41:12.529Z,10.42
2022-12-31T03:46:15.071Z,10.45
2022-12-31T03:51:18.919Z,10.50
2022-12-31T03:56:21.398Z,10.53
2022-12-31T04:01:25.349Z,10.55
2022-12-31T04:06:29.233Z,10.55
2022-12-31T04:11:31.748Z,10.57
2022-12-31T04:16:34.338Z,10.61
2022-12-31T04:21:38.355Z,10.62
2022-12-31T04:26:40.876Z,10.64
2022-12-31T04:31:43.699Z,10.69
2022-12-31T04:41:58.033Z,10.80
2022-12-31T04:47:00.533Z,10.84
2022-12-31T04:52:03.047Z,10.85
2022-12-31T04:57:07.137Z,10.86
2022-12-31T05:02:09.847Z,10.87
2022-12-31T05:07:12.500Z,10.85
2022-12-31T05:12:16.341Z,10.82
2022-12-31T05:17:20.648Z,10.84
2022-12-31T05:22:32.324Z,10.80
2022-12-31T05:27:37.748Z,10.76
2022-12-31T05:32:40.733Z,10.74
2022-12-31T05:37:43.226Z,10.70
2022-12-31T05:42:47.053Z,10.67
2022-12-31T05:47:49.624Z,10.67
2022-12-31T05:52:52.302Z,10.69
2022-12-31T05:57:56.131Z,10.70
2022-12-31T06:02:58.662Z,10.65
2022-12-31T06:08:01.276Z,10.63
2022-12-31T06:13:05.198Z,10.64
2022-12-31T06:18:08.417Z,10.68
2022-12-31T06:23:10.898Z,10.74
2022-12-31T06:28:20.184Z,10.76
2022-12-31T06:33:22.930Z,10.79
2022-12-31T06:38:25.686Z,10.80
2022-12-31T06:43:29.507Z,10.75
2022-12-31T06:48:32.389Z,10.73
2022-12-31T06:53:35.289Z,10.73
2022-12-31T06:58:39.694Z,10.74
2022-12-31T07:03:49.901Z,10.75
2022-12-31T07:09:02.227Z,10.73
2022-12-31T07:14:15.036Z,10.71
2022-12-31T07:19:29.289Z,10.69
2022-12-31T07:24:32.235Z,10.65
2022-12-31T07:29:52.788Z,10.64
2022-12-31T07:35:04.418Z,10.67
2022-12-31T07:40:16.459Z,10.67
2022-12-31T07:45:25.558Z,10.67
2022-12-31T07:50:28.651Z,10.68
2022-12-31T07:55:31.135Z,10.71
2022-12-31T08:00:35.142Z,10.73
2022-12-31T08:05:50.561Z,10.75
2022-12-31T08:11:04.396Z,10.72
2022-12-31T08:16:11.547Z,10.73
2022-12-31T08:21:34.504Z,10.73
2022-12-31T08:26:40.995Z,10.73
2022-12-31T08:31:55.846Z,10.75
2022-12-31T08:37:04.398Z,10.74
2022-12-31T08:42:21.506Z,10.73
2022-12-31T08:47:38.169Z,10.76
2022-12-31T08:52:41.580Z,10.73
2022-12-31T08:57:53.707Z,10.76
2022-12-31T09:03:13.038Z,10.79
2022-12-31T09:08:22.424Z,10.85
2022-12-31T09:13:33.030Z,10.88
2022-12-31T09:18:41.355Z,10.91
2022-12-31T09:23:44.463Z,10.93
2022-12-31T09:28:54.659Z,10.98
2022-12-31T09:34:07.725Z,11.02
2022-12-31T09:39:17.513Z,11.07
2022-12-31T09:45:10.577Z,11.11
2022-12-31T09:50:51.110Z,11.16
2022-12-31T09:55:58.235Z,11.19
2022-12-31T10:01:07.695Z,11.27
2022-12-31T10:06:22.945Z,11.32
2022-12-31T10:11:34.677Z,11.36
2022-12-31T10:16:59.539Z,11.41
2022-12-31T10:22:12.830Z,11.44
2022-12-31T10:27:29.864Z,11.45
2022-12-31T10:32:43.428Z,11.44
2022-12-31T10:37:53.849Z,11.41
2022-12-31T10:43:23.460Z,11.43
2022-12-31T10:48:48.160Z,11.45
2022-12-31T10:54:19.768Z,11.51
2022-12-31T10:59:54.757Z,11.54
2022-12-31T11:05:32.689Z,11.55
2022-12-31T11:10:56.706Z,11.56
2022-12-31T11:16:14.062Z,11.58
2022-12-31T11:21:40.942Z,11.59
2022-12-31T11:26:56.974Z,11.61
2022-12-31T11:32:11.361Z,11.60
2022-12-31T11:37:28.643Z,11.60
2022-12-31T11:42:43.826Z,11.59
2022-12-31T11:53:37.715Z,11.59
2022-12-31T11:58:43.092Z,11.57
2022-12-31T12:03:47.469Z,11.59
2022-12-31T12:08:50.460Z,11.61
2022-12-31T12:13:52.939Z,11.64
2022-12-31T12:19:06.412Z,11.72
2022-12-31T12:24:21.379Z,11.80
2022-12-31T12:29:28.527Z,11.86
2022-12-31T12:34:34.369Z,11.92
2022-12-31T12:39:36.866Z,11.92
2022-12-31T12:44:40.120Z,11.98
2022-12-31T12:49:47.735Z,12.06
2022-12-31T12:55:05.560Z,12.15
2022-12-31T13:00:17.802Z,12.23
2022-12-31T13:05:34.181Z,12.31
2022-12-31T13:10:52.308Z,12.40
2022-12-31T13:16:02.994Z,12.50
2022-12-31T13:21:25.195Z,12.52
2022-12-31T13:26:32.449Z,12.58
2022-12-31T13:31:38.515Z,12.66
2022-12-31T13:36:44.094Z,12.75
2022-12-31T13:42:00.843Z,12.79
2022-12-31T13:47:12.706Z,12.83
2022-12-31T13:52:25.915Z,12.88
2022-12-31T13:57:42.745Z,12.97
2022-12-31T14:02:53.564Z,13.05
2022-12-31T14:08:00.306Z,13.12
2022-12-31T14:13:17.402Z,13.17
2022-12-31T14:18:28.324Z,13.17
2022-12-31T14:23:40.954Z,13.19
2022-12-31T14:28:48.475Z,13.28
2022-12-31T14:33:58.969Z,13.31
2022-12-31T14:39:20.454Z,13.37
2022-12-31T14:44:37.715Z,13.44
2022-12-31T14:49:50.792Z,13.53
2022-12-31T14:55:03.607Z,13.57
2022-12-31T15:00:28.529Z,13.52
2022-12-31T15:05:32.998Z,13.47
2022-12-31T15:10:48.046Z,13.41
2022-12-31T15:16:07.924Z,13.39
2022-12-31T15:21:31.576Z,13.33
2022-12-31T15:26:35.605Z,13.25
2022-12-31T15:31:47.511Z,13.24
2022-12-31T15:36:53.962Z,13.23
2022-12-31T15:47:28.217Z,13.25
2022-12-31T15:52:40.239Z,13.27
2022-12-31T15:57:44.329Z,13.27
2022-12-31T16:02:48.616Z,13.25
2022-12-31T16:07:54.364Z,13.20
2022-12-31T16:12:59.840Z,13.22
2022-12-31T16:18:04.891Z,13.23
2022-12-31T16:23:21.809Z,13.27
2022-12-31T16:28:30.497Z,13.31
2022-12-31T16:33:33.575Z,13.34
2022-12-31T16:38:38.098Z,13.40
2022-12-31T16:43:43.851Z,13.45
2022-12-31T16:48:49.296Z,13.47
2022-12-31T16:53:56.775Z,13.46
2022-12-31T16:59:04.563Z,13.45
2022-12-31T17:04:12.590Z,13.45
2022-12-31T17:09:20.926Z,13.45
2022-12-31T17:14:28.217Z,13.44
2022-12-31T17:19:39.368Z,13.40
2022-12-31T17:24:42.481Z,13.35
2022-12-31T17:29:48.598Z,13.34
2022-12-31T17:34:52.631Z,13.35
2022-12-31T17:40:17.096Z,13.33
2022-12-31T17:45:24.601Z,13.33
2022-12-31T17:50:29.388Z,13.31
2022-12-31T17:55:34.030Z,13.27
2022-12-31T18:00:39.115Z,13.27
2022-12-31T18:05:42.449Z,13.18
2022-12-31T18:10:45.926Z,13.13
2022-12-31T18:15:50.684Z,13.12
2022-12-31T18:20:56.470Z,13.06
2022-12-31T18:25:59.254Z,13.05
2022-12-31T18:31:04.211Z,13.00
2022-12-31T18:36:11.891Z,12.96
2022-12-31T18:41:20.043Z,12.90
2022-12-31T18:46:27.098Z,12.84
2022-12-31T18:51:32.342Z,12.77
2022-12-31T18:56:35.798Z,12.71
2022-12-31T19:01:41.961Z,12.67
2022-12-31T19:06:44.917Z,12.64
2022-12-31T19:11:49.016Z,12.60
2022-12-31T19:16:54.294Z,12.65
2022-12-31T19:21:57.403Z,12.73
2022-12-31T19:27:02.342Z,12.72
2022-12-31T19:32:07.881Z,12.68
2022-12-31T19:37:15.668Z,12.64
2022-12-31T19:42:21.694Z,12.60
2022-12-31T19:47:25.899Z,12.57
2022-12-31T19:52:28.654Z,12.58
2022-12-31T19:57:31.325Z,12.59
2022-12-31T20:02:35.955Z,12.61
2022-12-31T20:07:39.078Z,12.73
2022-12-31T20:12:44.637Z,12.87
2022-12-31T20:17:49.213Z,12.99
2022-12-31T20:22:51.974Z,13.09
2022-12-31T20:27:55.597Z,13.22
2022-12-31T20:33:19.231Z,13.34
2022-12-31T20:38:24.179Z,13.44
2022-12-31T20:43:32.256Z,13.47
2022-12-31T20:48:40.524Z,13.49
2022-12-31T20:53:47.950Z,13.56
2022-12-31T20:58:50.775Z,13.59
2022-12-31T21:04:05.786Z,13.62
2022-12-31T21:09:10.442Z,13.63
2022-12-31T21:14:13.663Z,13.65
2022-12-31T21:19:19.895Z,13.66
2022-12-31T21:24:24.747Z,13.69
2022-12-31T21:29:32.794Z,13.68
2022-12-31T21:34:39.353Z,13.70
2022-12-31T21:39:43.338Z,13.67
2022-12-31T21:44:54.054Z,13.61
2022-12-31T21:50:00.970Z,13.55
2022-12-31T21:55:23.223Z,13.50
2022-12-31T22:00:44.263Z,13.51
2022-12-31T22:05:53.987Z,13.50
2022-12-31T22:10:57.852Z,13.52
2022-12-31T22:16:05.642Z,13.53
2022-12-31T22:21:20.455Z,13.56
2022-12-31T22:26:27.795Z,13.56
2022-12-31T22:31:32.458Z,13.55
2022-12-31T22:36:38.668Z,13.55
2022-12-31T22:41:44.088Z,13.57
2022-12-31T22:46:49.412Z,13.58
2022-12-31T22:51:56.822Z,13.60
2022-12-31T22:57:01.467Z,13.61
2022-12-31T23:02:04.113Z,13.66
2022-12-31T23:07:08.355Z,13.67
2022-12-31T23:12:11.793Z,13.71
2022-12-31T23:17:34.704Z,13.71
2022-12-31T23:22:56.442Z,13.69
2022-12-31T23:27:58.921Z,13.70
2022-12-31T23:33:01.438Z,13.71
2022-12-31T23:38:05.276Z,13.71
2022-12-31T23:43:09.439Z,13.70
2022-12-31T23:48:11.915Z,13.69
2022-12-31T23:53:15.713Z,13.68
2022-12-31T23:58:18.254Z,13.62
